Time;durP1;ratioP1;P1;durP2;ratioP2;P2;SDS_P1;SDS_P2;PMS_P1;PMS_P2;Temp;Humidity;BMP_temperature;BMP_pressure;BME280_temperature;BME280_humidity;BME280_pressure;Samples;Min_cycle;Max_cycle;Signal;HPM_P1;HPM_P2
2023/01/07 00:01:33;;;;;;;8.00;4.80;;;;;;;1.54;44.92;101025.70;1756771;81;21776;-81
2023/01/07 00:04:00;;;;;;;9.63;4.70;;;;;;;1.83;44.11;101029.58;1754980;81;21058;-82
2023/01/07 00:06:34;;;;;;;10.20;5.17;;;;;;;1.10;45.53;101040.19;1757337;81;21043;-82
2023/01/07 00:09:01;;;;;;;10.93;5.23;;;;;;;1.43;45.46;101045.91;1757122;81;21134;-81
2023/01/07 00:11:36;;;;;;;11.93;5.67;;;;;;;1.71;44.48;101042.41;1757081;81;21138;-81
2023/01/07 00:14:04;;;;;;;9.00;4.80;;;;;;;1.62;44.81;101040.98;1757012;81;21156;-82
2023/01/07 00:16:32;;;;;;;10.03;5.33;;;;;;;1.56;44.98;101038.29;1758005;81;21047;-81
2023/01/07 00:19:02;;;;;;;10.93;4.97;;;;;;;1.65;44.34;101043.61;1758153;81;21098;-81
2023/01/07 00:21:29;;;;;;;9.47;5.40;;;;;;;0.62;46.54;101045.45;1757774;81;21851;-82
2023/01/07 00:23:58;;;;;;;14.57;5.77;;;;;;;0.84;46.37;101041.49;1756951;81;21046;-82
2023/01/07 00:26:28;;;;;;;10.53;5.67;;;;;;;0.76;46.53;101041.80;1756771;81;21165;-81
2023/01/07 00:28:56;;;;;;;12.73;5.20;;;;;;;1.10;45.78;101029.81;1756891;81;21000;-80
2023/01/07 00:31:26;;;;;;;10.80;6.13;;;;;;;0.59;45.79;101030.24;1757079;81;22204;-82
2023/01/07 00:36:21;;;;;;;12.63;5.83;;;;;;;1.22;45.44;101035.17;1759065;81;21028;-83
2023/01/07 00:38:54;;;;;;;11.03;5.57;;;;;;;1.34;46.05;101035.39;1756992;81;21100;-82
2023/01/07 00:41:21;;;;;;;7.47;4.73;;;;;;;1.57;45.70;101051.30;1756661;81;21093;-82
2023/01/07 00:43:48;;;;;;;14.43;5.87;;;;;;;1.39;46.40;101057.52;1756637;81;21058;-83
2023/01/07 00:46:14;;;;;;;13.00;6.10;;;;;;;1.29;47.00;101055.22;1756675;81;21004;-82
2023/01/07 00:48:41;;;;;;;12.63;6.00;;;;;;;1.64;45.94;101060.05;1757393;81;21094;-80
2023/01/07 00:51:08;;;;;;;11.73;5.80;;;;;;;1.24;46.09;101056.84;1757600;80;21110;-81
2023/01/07 00:53:36;;;;;;;11.13;6.50;;;;;;;1.35;46.19;101063.50;1735981;81;21102;-82
2023/01/07 00:56:03;;;;;;;13.23;6.60;;;;;;;1.12;46.56;101070.92;1757340;81;21027;-81
2023/01/07 00:58:30;;;;;;;11.13;5.47;;;;;;;1.03;46.06;101072.50;1757066;81;21145;-81
2023/01/07 01:00:59;;;;;;;16.70;6.77;;;;;;;1.14;45.80;101071.83;1756690;81;21125;-80
2023/01/07 01:03:27;;;;;;;13.23;5.87;;;;;;;1.02;46.39;101075.09;1756782;81;21173;-81
2023/01/07 01:05:53;;;;;;;15.27;6.07;;;;;;;1.43;45.26;101065.81;1780629;80;21029;-82
2023/01/07 01:08:21;;;;;;;15.13;6.77;;;;;;;1.16;45.23;101065.81;1787748;80;21049;-81
2023/01/07 01:10:48;;;;;;;10.97;6.23;;;;;;;1.14;46.37;101065.34;1788065;80;21077;-81
2023/01/07 01:13:16;;;;;;;11.57;5.43;;;;;;;1.22;45.97;101062.42;1787922;80;21042;-81
2023/01/07 01:15:47;;;;;;;12.07;6.53;;;;;;;1.55;45.23;101059.49;1725297;83;21140;-82
2023/01/07 01:18:15;;;;;;;12.27;5.90;;;;;;;1.32;45.67;101069.52;1725170;83;21058;-81
2023/01/07 01:20:42;;;;;;;11.67;6.57;;;;;;;1.71;44.68;101076.60;1725808;83;21031;-83
2023/01/07 01:23:08;;;;;;;12.33;5.70;;;;;;;2.05;44.04;101074.03;1726167;83;22222;-79
2023/01/07 01:25:36;;;;;;;13.70;5.83;;;;;;;1.84;43.07;101080.69;1726347;83;21086;-81
2023/01/07 01:28:04;;;;;;;13.13;6.30;;;;;;;1.33;42.67;101077.74;1727806;83;21332;-82
2023/01/07 01:30:30;;;;;;;14.13;5.93;;;;;;;0.93;43.35;101076.23;1729539;83;21487;-81
2023/01/07 01:32:57;;;;;;;14.10;6.83;;;;;;;0.98;43.71;101076.74;1696799;83;20942;-82
2023/01/07 01:35:25;;;;;;;14.50;6.80;;;;;;;0.85;44.20;101069.59;1729569;83;20964;-81
2023/01/07 01:37:52;;;;;;;9.90;5.70;;;;;;;1.36;43.68;101070.03;1729794;83;20995;-80
2023/01/07 01:40:18;;;;;;;12.20;5.43;;;;;;;1.43;43.81;101071.00;1729570;83;21636;-81
2023/01/07 01:42:46;;;;;;;12.80;6.70;;;;;;;1.61;43.25;101064.78;1729702;83;21023;-81
2023/01/07 01:45:15;;;;;;;13.30;6.33;;;;;;;1.58;43.52;101066.45;1728912;82;21069;-82
2023/01/07 01:47:53;;;;;;;14.20;5.70;;;;;;;1.66;43.97;101062.25;1728670;83;21051;-80
2023/01/07 01:50:28;;;;;;;15.60;6.10;;;;;;;1.34;44.63;101063.94;1727583;83;21114;-81
2023/01/07 01:53:10;;;;;;;11.50;6.10;;;;;;;1.49;45.54;101061.98;1725751;83;21151;-80
2023/01/07 01:55:43;;;;;;;12.33;5.87;;;;;;;2.10;45.21;101055.47;1725511;83;21058;-81
2023/01/07 01:58:14;;;;;;;14.57;7.33;;;;;;;1.97;44.62;101065.26;1725720;83;21570;-82
2023/01/07 02:00:41;;;;;;;10.73;6.17;;;;;;;1.57;45.62;101072.50;1733348;81;21044;-81
2023/01/07 02:03:09;;;;;;;14.03;6.40;;;;;;;1.74;45.64;101071.00;1755620;81;21064;-81
2023/01/07 02:05:39;;;;;;;15.43;6.77;;;;;;;2.18;43.55;101069.84;1755346;81;21552;-80
2023/01/07 02:08:05;;;;;;;11.13;6.13;;;;;;;2.15;42.90;101066.79;1725539;82;21020;-81
2023/01/07 02:10:34;;;;;;;12.87;6.80;;;;;;;2.09;43.24;101066.70;1765802;80;21053;-82
2023/01/07 02:13:26;;;;;;;17.20;7.17;;;;;;;1.57;43.25;101076.40;1787692;80;21550;-82
2023/01/07 02:16:39;;;;;;;10.83;5.47;;;;;;;1.45;43.61;101071.47;1807693;79;21048;-81
2023/01/07 02:19:38;;;;;;;15.33;6.87;;;;;;;1.47;43.96;101071.47;1766072;79;21242;-81
2023/01/07 02:22:37;;;;;;;14.47;6.47;;;;;;;1.27;43.93;101072.48;1765147;81;21119;-80
2023/01/07 02:25:24;;;;;;;12.47;6.40;;;;;;;0.89;44.47;101066.64;1798314;77;21057;-81
2023/01/07 02:28:29;;;;;;;13.53;7.17;;;;;;;1.09;44.25;101067.86;1735192;80;21177;-81
2023/01/07 02:31:46;;;;;;;11.77;5.97;;;;;;;0.82;45.46;101064.36;1797801;79;21092;-83
2023/01/07 02:34:42;;;;;;;11.20;6.27;;;;;;;0.91;44.49;101067.55;1798179;79;21252;-81
2023/01/07 02:37:34;;;;;;;13.37;6.00;;;;;;;0.77;43.69;101068.59;1797340;79;21067;-81
2023/01/07 02:40:12;;;;;;;14.87;6.43;;;;;;;0.79;44.29;101068.20;1797252;79;21496;-83
2023/01/07 02:43:07;;;;;;;14.73;6.20;;;;;;;0.84;45.03;101071.75;1797422;79;21053;-80
2023/01/07 02:45:48;;;;;;;16.97;6.87;;;;;;;0.98;44.20;101067.66;1799544;79;21021;-82
2023/01/07 02:48:15;;;;;;;;;;;;;;;0.77;44.95;101067.30;1800924;79;21095;-82
2023/01/07 02:50:42;;;;;;;12.37;6.07;;;;;;;1.08;45.02;101073.01;1797029;79;20139;-81
2023/01/07 02:53:10;;;;;;;17.83;7.47;;;;;;;0.84;44.01;101067.86;1797239;79;21599;-80
2023/01/07 02:56:11;;;;;;;16.23;7.20;;;;;;;0.43;44.96;101074.44;1797136;79;21076;-80
2023/01/07 02:59:03;;;;;;;14.30;7.40;;;;;;;0.41;45.75;101076.12;1796887;79;21095;-80
2023/01/07 03:01:47;;;;;;;21.40;9.23;;;;;;;0.58;45.37;101077.33;1759825;79;21799;-81
2023/01/07 03:04:34;;;;;;;16.97;8.67;;;;;;;0.93;44.88;101074.50;1765331;81;21089;-82
2023/01/07 03:07:33;;;;;;;20.83;9.10;;;;;;;0.65;45.44;101078.33;1765433;81;21101;-81
2023/01/07 03:10:17;;;;;;;18.87;8.47;;;;;;;0.41;45.21;101089.08;1683353;84;21124;-83
2023/01/07 03:12:50;;;;;;;19.53;9.20;;;;;;;0.50;44.91;101086.67;1691305;81;21095;-82
2023/01/07 03:15:37;;;;;;;26.10;10.23;;;;;;;0.47;44.67;101090.50;1761174;81;21145;-82
2023/01/07 03:18:11;;;;;;;19.73;9.33;;;;;;;0.46;44.81;101089.17;1751859;81;21137;-81
2023/01/07 03:20:40;;;;;;;24.53;9.50;;;;;;;0.44;44.50;101097.33;1748905;81;21541;-81
2023/01/07 03:23:09;;;;;;;20.33;8.83;;;;;;;0.47;44.35;101092.23;1751883;81;21181;-82
2023/01/07 03:25:44;;;;;;;19.13;8.93;;;;;;;0.41;43.96;101095.56;1751617;81;21133;-82
2023/01/07 03:28:14;;;;;;;22.70;9.93;;;;;;;0.04;44.25;101101.28;1751224;81;21144;-80
2023/01/07 03:30:40;;;;;;;23.67;10.13;;;;;;;0.02;45.02;101099.50;1751232;81;21055;-81
2023/01/07 03:33:17;;;;;;;22.53;8.93;;;;;;;0.27;44.63;101093.12;1752104;81;21038;-81
2023/01/07 03:35:46;;;;;;;25.30;9.20;;;;;;;0.51;43.34;101094.91;1721817;81;21102;-82
2023/01/07 03:38:12;;;;;;;21.67;10.30;;;;;;;0.13;44.26;101101.47;1751850;81;21026;-81
2023/01/07 03:40:39;;;;;;;20.37;9.90;;;;;;;0.15;43.74;101097.20;1751639;81;21764;-81
2023/01/07 03:43:15;;;;;;;22.40;9.30;;;;;;;-0.07;44.23;101094.98;1751276;81;21078;-80
2023/01/07 03:45:44;;;;;;;19.23;9.07;;;;;;;-0.27;44.36;101097.16;1751934;80;21047;-81
2023/01/07 03:48:11;;;;;;;23.03;9.80;;;;;;;-0.27;44.31;101098.02;1782464;80;21074;-80
2023/01/07 03:50:39;;;;;;;19.30;8.37;;;;;;;-0.44;44.28;101094.16;1782561;80;21054;-82
2023/01/07 03:53:05;;;;;;;22.03;9.20;;;;;;;-0.52;44.97;101093.12;1782518;80;21241;-80
2023/01/07 03:55:34;;;;;;;16.70;8.33;;;;;;;-0.88;45.56;101098.72;1782757;80;21137;-82
2023/01/07 03:58:01;;;;;;;20.07;8.63;;;;;;;-0.54;45.56;101093.08;1782477;80;21103;-81
2023/01/07 04:00:28;;;;;;;21.17;9.97;;;;;;;0.05;44.37;101096.57;1782263;80;21062;-81
2023/01/07 04:03:00;;;;;;;22.63;9.43;;;;;;;-0.46;45.16;101098.42;1782273;80;21010;-81
2023/01/07 04:05:29;;;;;;;23.63;10.57;;;;;;;-0.38;45.32;101094.31;1782008;80;21315;-81
2023/01/07 04:07:57;;;;;;;21.20;8.90;;;;;;;-0.40;44.59;101099.00;1782381;80;21046;-82
2023/01/07 04:10:25;;;;;;;23.47;9.33;;;;;;;-0.49;45.15;101100.95;1782534;80;21073;-82
2023/01/07 04:12:52;;;;;;;17.63;8.63;;;;;;;-0.23;44.43;101114.09;1782409;80;21070;-81
2023/01/07 04:15:19;;;;;;;23.40;8.40;;;;;;;-0.22;43.92;101111.08;1778680;80;21054;-81
2023/01/07 04:17:45;;;;;;;19.27;9.73;;;;;;;-0.16;44.39;101121.58;1762411;81;21234;-80
2023/01/07 04:20:12;;;;;;;22.20;9.30;;;;;;;0.03;43.23;101124.15;1762373;81;21003;-81
2023/01/07 04:22:39;;;;;;;23.77;9.40;;;;;;;-0.32;44.28;101125.53;1762304;81;21105;-81
2023/01/07 04:25:07;;;;;;;22.07;8.60;;;;;;;-0.37;44.40;101118.48;1762725;80;21062;-81
2023/01/07 04:27:34;;;;;;;23.80;9.47;;;;;;;0.09;44.23;101128.17;1733054;81;21053;-82
2023/01/07 04:30:01;;;;;;;21.67;8.87;;;;;;;-1.16;46.03;101133.76;1764402;81;21134;-81
2023/01/07 04:32:30;;;;;;;24.43;9.63;;;;;;;-0.17;44.14;101134.48;1763450;81;21397;-81
2023/01/07 04:34:57;;;;;;;21.97;9.17;;;;;;;-0.04;43.67;101130.04;1762682;81;21086;-81
2023/01/07 04:37:24;;;;;;;18.63;8.67;;;;;;;0.06;43.58;101125.50;1762725;81;21025;-82
2023/01/07 04:39:50;;;;;;;19.33;8.67;;;;;;;0.13;43.58;101127.38;1762738;81;21010;-82
2023/01/07 04:42:17;;;;;;;22.53;9.43;;;;;;;-0.02;44.49;101124.48;1762700;80;21210;-82
2023/01/07 04:44:44;;;;;;;23.10;9.20;;;;;;;0.08;42.70;101135.47;1762262;81;21074;-81
2023/01/07 04:47:11;;;;;;;23.43;9.93;;;;;;;-0.28;43.37;101136.81;1762494;81;21187;-81
2023/01/07 04:49:38;;;;;;;25.17;9.40;;;;;;;-0.29;43.66;101141.13;1762692;81;21058;-82
2023/01/07 04:52:05;;;;;;;20.33;10.20;;;;;;;-0.40;43.19;101141.28;1762471;81;21567;-82
2023/01/07 04:54:32;;;;;;;22.37;9.07;;;;;;;-0.98;44.10;101147.60;1762662;81;21887;-81
2023/01/07 04:56:58;;;;;;;21.30;9.23;;;;;;;-1.23;44.01;101153.39;1762756;81;20975;-82
2023/01/07 04:59:26;;;;;;;23.20;9.33;;;;;;;-1.44;43.58;101160.56;1762534;81;21133;-82
2023/01/07 05:01:53;;;;;;;20.97;9.40;;;;;;;-1.54;44.02;101155.53;1762559;80;21054;-81
2023/01/07 05:04:19;;;;;;;18.43;9.13;;;;;;;-1.25;43.79;101152.90;1762750;81;21098;-81
2023/01/07 05:06:47;;;;;;;21.10;9.57;;;;;;;-1.37;44.13;101147.84;1762750;81;21840;-80
2023/01/07 05:09:14;;;;;;;22.20;10.03;;;;;;;-1.01;44.00;101152.67;1763431;81;21022;-80
2023/01/07 05:11:41;;;;;;;19.47;8.43;;;;;;;-1.63;43.23;101158.75;1765180;81;21031;-81
2023/01/07 05:14:09;;;;;;;21.03;8.53;;;;;;;-1.29;43.83;101151.92;1765292;81;20984;-84
2023/01/07 05:16:36;;;;;;;23.53;9.63;;;;;;;-1.46;43.57;101160.94;1719323;80;21016;-80
2023/01/07 05:19:05;;;;;;;17.10;7.83;;;;;;;-1.55;43.32;101153.79;1778572;80;21098;-81
2023/01/07 05:21:33;;;;;;;25.50;9.30;;;;;;;-1.14;43.61;101154.94;1777238;80;21062;-81
2023/01/07 05:24:00;;;;;;;21.47;8.73;;;;;;;-0.95;43.03;101161.89;1745809;82;21107;-81
2023/01/07 05:26:27;;;;;;;25.03;10.03;;;;;;;-1.36;43.17;101164.22;1755688;81;21043;-82
2023/01/07 05:28:54;;;;;;;29.33;12.03;;;;;;;-1.29;43.16;101163.55;1756211;81;21109;-80
2023/01/07 05:31:21;;;;;;;24.70;9.90;;;;;;;-1.42;43.44;101169.23;1756349;81;21383;-81
2023/01/07 05:33:48;;;;;;;24.83;8.70;;;;;;;-1.23;43.52;101180.95;1777642;80;20984;-81
2023/01/07 05:36:14;;;;;;;23.47;10.03;;;;;;;-0.48;42.07;101179.06;1778282;80;21000;-81
2023/01/07 05:38:41;;;;;;;26.07;9.93;;;;;;;-0.76;43.13;101183.53;1745858;80;21102;-79
2023/01/07 05:41:10;;;;;;;26.10;10.40;;;;;;;-0.86;43.30;101182.82;1778546;80;20999;-80
2023/01/07 05:43:36;;;;;;;28.60;11.50;;;;;;;-0.65;42.43;101184.66;1779271;80;21180;-80
2023/01/07 05:46:03;;;;;;;20.13;9.97;;;;;;;-0.72;43.59;101195.69;1778538;80;20985;-81
2023/01/07 05:48:30;;;;;;;23.23;9.27;;;;;;;-0.65;43.17;101196.30;1779061;80;21417;-82
2023/01/07 05:50:56;;;;;;;19.80;8.83;;;;;;;-0.38;43.95;101192.67;1779020;80;20981;-82
2023/01/07 05:53:23;;;;;;;23.63;9.13;;;;;;;0.03;43.22;101191.48;1746296;80;21059;-82
2023/01/07 05:55:56;;;;;;;20.13;9.10;;;;;;;-0.13;42.87;101198.02;1776555;80;21257;-81
2023/01/07 05:58:22;;;;;;;21.27;9.37;;;;;;;-0.11;42.68;101204.11;1774765;80;21070;-81
2023/01/07 06:00:49;;;;;;;23.87;8.73;;;;;;;-0.48;42.80;101208.81;1774235;80;21106;-82
2023/01/07 06:03:15;;;;;;;21.23;8.77;;;;;;;-0.15;42.86;101213.06;1774660;80;21085;-82
2023/01/07 06:05:43;;;;;;;26.73;9.07;;;;;;;0.28;42.16;101210.18;1783986;80;21041;-81
2023/01/07 06:08:10;;;;;;;23.60;9.33;;;;;;;-0.22;42.68;101221.97;1787943;80;21810;-82
2023/01/07 06:10:37;;;;;;;26.57;9.20;;;;;;;0.16;42.33;101222.02;1787705;80;21058;-81
2023/01/07 06:13:03;;;;;;;23.17;9.73;;;;;;;0.33;41.91;101223.68;1787777;80;21064;-81
2023/01/07 06:15:31;;;;;;;23.83;10.53;;;;;;;0.12;41.98;101230.98;1788384;79;21014;-82
2023/01/07 06:17:58;;;;;;;23.70;9.70;;;;;;;-0.17;43.10;101237.62;1816475;79;21213;-82
2023/01/07 06:20:25;;;;;;;25.23;10.93;;;;;;;0.15;42.67;101238.38;1817036;79;21130;-81
2023/01/07 06:22:51;;;;;;;24.57;9.67;;;;;;;0.03;42.95;101236.81;1816896;79;21089;-83
2023/01/07 06:25:17;;;;;;;27.83;10.60;;;;;;;-0.04;43.24;101235.78;1817010;79;21073;-80
2023/01/07 06:27:44;;;;;;;25.23;9.87;;;;;;;0.21;42.85;101238.96;1818490;79;21058;-82
2023/01/07 06:30:12;;;;;;;22.80;9.63;;;;;;;0.17;43.03;101235.84;1817799;79;21517;-83
2023/01/07 06:32:41;;;;;;;25.30;10.20;;;;;;;0.27;42.53;101237.78;1816420;79;21221;-81
2023/01/07 06:35:09;;;;;;;23.37;10.90;;;;;;;0.42;42.11;101239.86;1816082;79;21565;-82
2023/01/07 06:37:37;;;;;;;19.23;8.63;;;;;;;0.27;41.97;101233.89;1816397;79;21081;-82
2023/01/07 06:40:07;;;;;;;29.40;11.83;;;;;;;0.36;41.35;101243.59;1816586;79;21026;-82
2023/01/07 06:42:34;;;;;;;28.67;10.88;;;;;;;0.43;42.54;101247.20;1816684;79;21045;-82
2023/01/07 06:45:00;;;;;;;22.70;9.90;;;;;;;0.03;43.32;101247.17;1816904;79;21269;-83
2023/01/07 06:47:27;;;;;;;27.87;10.07;;;;;;;0.42;42.57;101246.34;1816845;79;21053;-80
2023/01/07 06:49:54;;;;;;;21.57;9.20;;;;;;;0.48;42.93;101255.52;1816410;79;21042;-84
2023/01/07 06:52:21;;;;;;;32.43;16.27;;;;;;;0.56;42.63;101255.71;1816342;79;20973;-82
2023/01/07 06:54:47;;;;;;;22.50;10.10;;;;;;;0.67;41.38;101258.13;1818625;79;21116;-84
2023/01/07 06:57:15;;;;;;;23.90;10.43;;;;;;;0.73;41.56;101257.36;1817586;79;21145;-80
2023/01/07 06:59:42;;;;;;;31.23;12.77;;;;;;;1.25;40.81;101254.53;1816694;79;21029;-81
2023/01/07 07:02:17;;;;;;;33.43;10.97;;;;;;;1.28;40.74;101259.77;1816868;79;21779;-82
2023/01/07 07:04:43;;;;;;;29.63;13.30;;;;;;;1.26;40.59;101262.75;1809455;79;21632;-81
2023/01/07 07:07:10;;;;;;;30.70;12.53;;;;;;;1.49;39.82;101261.88;1797130;79;21030;-82
2023/01/07 07:09:36;;;;;;;29.40;11.97;;;;;;;1.58;39.62;101266.37;1796418;79;21216;-83
2023/01/07 07:12:04;;;;;;;28.93;12.37;;;;;;;1.09;40.08;101267.63;1796678;79;21058;-81
2023/01/07 07:14:30;;;;;;;26.83;11.73;;;;;;;1.47;40.23;101272.66;1796616;79;21098;-81
2023/01/07 07:16:58;;;;;;;36.83;16.87;;;;;;;1.52;40.80;101275.34;1788170;79;21551;-82
2023/01/07 07:19:27;;;;;;;64.20;25.83;;;;;;;1.85;40.45;101273.34;1782256;80;21099;-82
2023/01/07 07:21:54;;;;;;;34.17;13.97;;;;;;;1.68;41.67;101279.98;1782488;80;23498;-82
2023/01/07 07:24:22;;;;;;;33.07;13.33;;;;;;;1.78;42.14;101287.08;1782235;80;21138;-82
2023/01/07 07:26:48;;;;;;;41.50;13.80;;;;;;;2.14;41.74;101291.15;1782531;80;21066;-82
2023/01/07 07:29:15;;;;;;;38.27;13.40;;;;;;;2.82;42.22;101296.03;1782770;80;21113;-84
2023/01/07 07:31:41;;;;;;;45.37;16.33;;;;;;;3.11;39.23;101298.58;1782294;80;21507;-82
2023/01/07 07:34:09;;;;;;;37.03;13.17;;;;;;;2.97;39.04;101296.23;1782568;80;21107;-83
2023/01/07 07:36:37;;;;;;;66.33;18.87;;;;;;;2.87;38.91;101299.55;1782249;80;21121;-82
2023/01/07 07:39:04;;;;;;;28.23;12.67;;;;;;;2.65;39.08;101300.58;1782336;80;21546;-83
2023/01/07 07:41:36;;;;;;;26.80;12.83;;;;;;;3.09;39.11;101301.59;1782342;80;21063;-82
2023/01/07 07:44:04;;;;;;;32.20;13.67;;;;;;;3.64;38.57;101298.73;1782706;80;21063;-83
2023/01/07 07:46:31;;;;;;;35.87;15.10;;;;;;;4.37;38.10;101299.80;1782631;80;21236;-83
2023/01/07 07:48:58;;;;;;;34.78;14.53;;;;;;;4.56;37.67;101299.92;1782272;80;21047;-83
2023/01/07 07:51:27;;;;;;;29.80;12.37;;;;;;;4.81;34.12;101303.55;1782308;80;21129;-83
2023/01/07 07:53:54;;;;;;;30.85;11.05;;;;;;;4.57;34.33;101297.74;1782592;80;21606;-83
2023/01/07 07:56:22;;;;;;;31.25;12.33;;;;;;;4.45;35.58;101300.28;1782439;80;21634;-83
2023/01/07 07:58:49;;;;;;;31.07;12.60;;;;;;;4.62;35.10;101296.02;1782261;80;21127;-81
2023/01/07 08:01:15;;;;;;;27.73;10.98;;;;;;;4.82;35.36;101298.31;1782189;80;21098;-82
2023/01/07 08:03:42;;;;;;;26.90;11.33;;;;;;;5.14;34.50;101308.05;1782630;80;21050;-82
2023/01/07 08:06:09;;;;;;;27.67;12.15;;;;;;;5.07;34.38;101310.20;1795029;80;21033;-83
2023/01/07 08:08:35;;;;;;;25.70;12.15;;;;;;;5.28;33.98;101309.84;1798494;80;20986;-83
2023/01/07 08:11:03;;;;;;;28.85;11.75;;;;;;;5.73;34.04;101308.20;1795559;79;21126;-82
2023/01/07 08:13:30;;;;;;;24.12;12.07;;;;;;;5.87;33.66;101302.59;1794662;80;21026;-82
2023/01/07 08:16:00;;;;;;;28.60;11.00;;;;;;;5.36;33.89;101306.41;1793843;80;20994;-82
2023/01/07 08:18:27;;;;;;;48.33;14.33;;;;;;;5.62;33.66;101306.45;1791304;79;21085;-81
2023/01/07 08:22:01;;;;;;;35.23;12.73;;;;;;;1.02;38.25;101322.39;1796612;79;22643;-67
2023/01/07 08:24:29;;;;;;;38.02;13.00;;;;;;;3.22;35.21;101316.94;1756323;81;21073;-66
2023/01/07 08:26:56;;;;;;;43.92;14.78;;;;;;;3.25;35.41;101326.52;1756381;81;21990;-66
2023/01/07 08:29:23;;;;;;;30.12;10.72;;;;;;;3.47;36.71;101318.50;1756400;81;21038;-66
2023/01/07 08:31:49;;;;;;;26.25;11.10;;;;;;;3.48;34.84;101329.38;1756191;81;21014;-64
2023/01/07 08:34:16;;;;;;;28.33;12.57;;;;;;;3.51;35.01;101335.48;1737027;81;21044;-67
2023/01/07 08:36:43;;;;;;;25.37;10.17;;;;;;;2.90;35.68;101326.94;1756525;81;21033;-66
2023/01/07 08:39:11;;;;;;;27.70;10.63;;;;;;;2.70;35.32;101330.12;1756388;81;21242;-66
2023/01/07 08:41:37;;;;;;;23.87;10.83;;;;;;;2.71;35.38;101326.69;1756244;81;21112;-67
2023/01/07 08:44:04;;;;;;;23.37;10.37;;;;;;;2.84;35.35;101329.02;1756435;81;20969;-67
2023/01/07 08:46:31;;;;;;;20.67;8.27;;;;;;;2.52;35.10;101330.72;1756348;81;21113;-66
2023/01/07 08:48:57;;;;;;;22.97;10.47;;;;;;;2.40;35.72;101329.67;1756388;81;21045;-66
2023/01/07 08:51:28;;;;;;;26.63;10.47;;;;;;;2.57;35.58;101317.78;1756417;81;22274;-67
2023/01/07 08:53:54;;;;;;;;;;;;;;;2.53;35.43;101322.48;1758942;81;21093;-66
2023/01/07 08:56:21;;;;;;;25.17;10.47;;;;;;;2.55;35.94;101322.08;1756574;81;20195;-65
2023/01/07 08:58:48;;;;;;;25.60;11.43;;;;;;;2.56;35.72;101323.84;1756494;81;21053;-66
2023/01/07 09:01:15;;;;;;;22.63;10.23;;;;;;;2.42;36.26;101320.17;1756482;81;21096;-65
2023/01/07 09:03:42;;;;;;;24.67;10.67;;;;;;;2.40;36.10;101318.84;1755548;81;21136;-66
2023/01/07 09:06:09;;;;;;;27.37;11.23;;;;;;;2.28;36.05;101314.77;1748024;82;21021;-65
2023/01/07 09:08:35;;;;;;;29.17;11.23;;;;;;;2.08;37.22;101311.83;1748094;82;21037;-66
2023/01/07 09:11:02;;;;;;;22.40;10.43;;;;;;;1.60;37.61;101314.02;1748236;82;21581;-66
2023/01/07 09:13:29;;;;;;;24.90;11.10;;;;;;;1.96;37.82;101303.84;1747979;82;21108;-66
2023/01/07 09:15:55;;;;;;;24.03;10.90;;;;;;;1.88;38.32;101312.34;1747845;82;21113;-66
2023/01/07 09:18:22;;;;;;;20.37;8.50;;;;;;;2.25;37.79;101308.19;1747813;82;21041;-67
2023/01/07 09:20:48;;;;;;;24.20;10.23;;;;;;;2.40;38.14;101311.47;1748141;81;21037;-65
2023/01/07 09:23:15;;;;;;;24.73;9.87;;;;;;;2.72;37.02;101295.91;1748907;81;21033;-67
2023/01/07 09:25:42;;;;;;;21.37;9.43;;;;;;;3.09;36.61;101304.63;1748692;81;21025;-65
2023/01/07 09:28:08;;;;;;;49.73;18.97;;;;;;;3.47;35.38;101298.97;1748625;81;21396;-65
2023/01/07 09:30:36;;;;;;;23.37;11.00;;;;;;;3.32;34.61;101295.35;1748888;82;21021;-65
2023/01/07 09:33:04;;;;;;;30.17;10.97;;;;;;;2.62;35.63;101296.64;1748401;81;20988;-66
2023/01/07 09:35:30;;;;;;;31.00;12.27;;;;;;;2.57;35.89;101290.48;1748330;81;21093;-67
2023/01/07 09:37:58;;;;;;;34.57;13.20;;;;;;;2.89;36.08;101291.34;1748207;81;21002;-66
2023/01/07 09:40:37;;;;;;;28.20;10.50;;;;;;;2.89;35.96;101299.16;1748484;82;21099;-66
2023/01/07 09:43:30;;;;;;;24.27;9.43;;;;;;;3.21;34.71;101293.48;1747894;81;21061;-66
2023/01/07 09:45:58;;;;;;;26.27;10.43;;;;;;;3.32;34.69;101289.27;1748025;82;21049;-67
2023/01/07 09:48:37;;;;;;;27.37;10.77;;;;;;;3.02;35.11;101297.59;1748417;82;21060;-66
2023/01/07 09:51:18;;;;;;;29.17;11.17;;;;;;;3.01;35.21;101294.09;1749123;82;21779;-65
2023/01/07 09:53:56;;;;;;;28.13;10.80;;;;;;;2.77;35.92;101296.40;1748511;82;21298;-67
2023/01/07 12:15:00;;;;;;;22.50;11.07;;;;;;;0.49;44.38;101313.02;1816007;79;22007;-66
2023/01/07 12:17:29;;;;;;;22.37;10.13;;;;;;;0.43;42.55;101321.94;1789330;80;21089;-65
2023/01/07 12:20:23;;;;;;;21.82;9.73;;;;;;;0.59;42.16;101323.17;1789268;80;21925;-66
2023/01/07 12:23:23;;;;;;;27.83;10.73;;;;;;;0.87;40.77;101325.95;1789401;80;21455;-66
2023/01/07 12:26:18;;;;;;;34.30;11.47;;;;;;;1.22;41.17;101329.70;1788618;80;21026;-65
2023/01/07 12:29:02;;;;;;;23.37;9.50;;;;;;;0.88;39.76;101319.94;1789517;80;21018;-67
2023/01/07 12:31:46;;;;;;;24.23;11.03;;;;;;;0.83;39.42;101321.56;1789171;80;20998;-65
2023/01/07 12:34:56;;;;;;;22.03;9.97;;;;;;;0.72;39.76;101317.86;1789314;80;21194;-65
2023/01/07 12:37:58;;;;;;;23.87;10.95;;;;;;;0.84;39.64;101318.98;1788660;80;21034;-66
2023/01/07 12:40:52;;;;;;;31.40;12.03;;;;;;;1.61;39.18;101314.45;1789142;80;21146;-65
2023/01/07 12:43:38;;;;;;;22.53;10.73;;;;;;;1.76;38.66;101324.27;1773915;80;21097;-65
2023/01/07 12:46:06;;;;;;;31.70;12.47;;;;;;;1.73;38.31;101329.41;1789188;80;21053;-65
2023/01/07 12:48:54;;;;;;;25.97;10.80;;;;;;;1.48;38.68;101324.17;1789345;80;21230;-65
2023/01/07 12:51:32;;;;;;;21.97;9.57;;;;;;;0.99;38.33;101324.94;1788988;80;20994;-65
2023/01/07 12:54:06;;;;;;;24.47;10.13;;;;;;;1.05;38.44;101335.42;1789248;80;21062;-66
2023/01/07 12:56:44;;;;;;;32.73;11.17;;;;;;;0.93;39.11;101326.09;1759297;80;21054;-66
2023/01/07 12:59:47;;;;;;;26.90;11.63;;;;;;;1.44;38.38;101333.19;1788871;80;21447;-66
2023/01/07 13:02:34;;;;;;;35.30;11.50;;;;;;;1.32;38.28;101325.16;1726478;83;21587;-66
2023/01/07 13:05:20;;;;;;;24.03;12.33;;;;;;;1.31;38.91;101325.13;1694445;83;21132;-66
2023/01/07 13:07:54;;;;;;;21.03;9.00;;;;;;;0.97;38.40;101330.51;1701766;84;21032;-66
2023/01/07 13:10:37;;;;;;;27.10;10.13;;;;;;;0.97;37.55;101332.23;1708400;83;21009;-66
2023/01/07 13:13:24;;;;;;;22.50;9.33;;;;;;;0.66;38.36;101338.45;1708144;83;21072;-65
2023/01/07 13:15:51;;;;;;;28.07;10.20;;;;;;;0.69;38.53;101337.21;1703061;84;21289;-65
2023/01/07 13:18:19;;;;;;;26.40;10.70;;;;;;;1.08;38.89;101342.81;1707817;84;21075;-65
2023/01/07 13:21:12;;;;;;;23.63;9.37;;;;;;;1.58;37.55;101345.13;1708020;84;21033;-65
2023/01/07 13:23:59;;;;;;;26.43;10.10;;;;;;;2.56;36.50;101343.36;1708133;84;21055;-65
2023/01/07 13:26:46;;;;;;;25.63;10.50;;;;;;;2.07;35.92;101338.64;1707916;84;21572;-66
2023/01/07 13:29:50;;;;;;;20.27;8.63;;;;;;;2.29;35.57;101328.19;1708267;84;21131;-66
2023/01/07 13:32:49;;;;;;;27.53;11.03;;;;;;;0.71;37.64;101334.23;1707407;84;21620;-66
2023/01/07 13:35:51;;;;;;;25.32;10.05;;;;;;;-0.04;38.93;101333.33;1708028;84;21079;-66
2023/01/07 13:38:25;;;;;;;25.20;8.70;;;;;;;0.03;39.36;101340.41;1708196;84;21088;-66
2023/01/07 13:41:34;;;;;;;28.80;13.20;;;;;;;-0.37;39.86;101341.94;1708206;84;21077;-68
2023/01/07 13:44:27;;;;;;;32.43;11.60;;;;;;;0.24;39.02;101343.08;1707830;84;21231;-66
2023/01/07 13:46:54;;;;;;;43.00;15.50;;;;;;;0.54;38.87;101337.33;1707830;83;21144;-66
2023/01/07 13:49:31;;;;;;;40.87;16.83;;;;;;;0.99;38.25;101335.31;1708114;83;21568;-66
2023/01/07 13:52:18;;;;;;;42.20;17.47;;;;;;;0.59;38.65;101347.38;1680120;84;21060;-67
2023/01/07 13:54:55;;;;;;;49.00;18.47;;;;;;;0.49;38.96;101356.22;1708029;83;21049;-66
2023/01/07 13:57:37;;;;;;;28.50;11.97;;;;;;;0.11;39.27;101351.83;1703251;83;21010;-66
2023/01/07 14:00:08;;;;;;;37.73;15.17;;;;;;;0.23;39.25;101346.49;1702408;82;21115;-66
2023/01/07 14:02:55;;;;;;;26.53;10.37;;;;;;;0.46;38.98;101353.13;1687269;84;21111;-66
2023/01/07 14:05:25;;;;;;;28.23;11.07;;;;;;;0.01;39.39;101354.16;1689878;84;21099;-66
2023/01/07 14:07:56;;;;;;;39.73;12.45;;;;;;;-0.09;39.87;101355.61;1690405;84;21084;-66